Time;durP1;ratioP1;P1;durP2;ratioP2;P2;SDS_P1;SDS_P2;PMS_P1;PMS_P2;Temp;Humidity;BMP_temperature;BMP_pressure;BME280_temperature;BME280_humidity;BME280_pressure;Samples;Min_cycle;Max_cycle;Signal;HPM_P1;HPM_P2
2022/04/10 00:02:01;;;;;;;20.75;10.90;;;;;;;;;;5053934;28;20040;-41
2022/04/10 00:04:28;;;;;;;26.88;12.43;;;;;;;;;;5053868;28;20060;-40
2022/04/10 00:06:54;;;;;;;15.82;8.80;;;;;;;;;;5053867;28;20021;-38
2022/04/10 00:09:20;;;;;;;14.13;8.07;;;;;;;;;;5053627;28;20508;-46
2022/04/10 00:11:46;;;;;;;13.63;7.40;;;;;;;;;;5054024;28;20024;-39
2022/04/10 00:14:12;;;;;;;16.75;9.70;;;;;;;;;;5053733;28;20111;-43
2022/04/10 00:16:41;;;;;;;13.52;8.40;;;;;;;;;;5053626;28;20021;-45
2022/04/10 00:19:07;;;;;;;13.15;8.35;;;;;;;;;;5053620;28;20035;-46
2022/04/10 00:21:33;;;;;;;14.73;8.27;;;;;;;;;;5053616;28;20063;-44
2022/04/10 00:23:59;;;;;;;21.58;11.40;;;;;;;;;;5053691;28;20103;-38
2022/04/10 00:26:26;;;;;;;16.33;9.13;;;;;;;;;;5053459;28;20432;-40
2022/04/10 00:28:53;;;;;;;10.50;6.97;;;;;;;;;;5053449;28;20033;-44
2022/04/10 00:31:19;;;;;;;13.23;7.35;;;;;;;;;;5053529;28;20092;-43
2022/04/10 00:33:46;;;;;;;15.02;8.18;;;;;;;;;;5053104;28;20021;-46
2022/04/10 00:36:12;;;;;;;12.52;8.00;;;;;;;;;;5053409;28;20112;-38
2022/04/10 00:38:41;;;;;;;14.82;8.02;;;;;;;;;;5053467;28;20021;-44
2022/04/10 00:41:10;;;;;;;15.70;9.13;;;;;;;;;;5053612;28;20116;-39
2022/04/10 00:43:38;;;;;;;16.75;9.77;;;;;;;;;;5053498;28;20074;-41
2022/04/10 00:46:04;;;;;;;12.75;8.48;;;;;;;;;;5053261;28;20043;-42
2022/04/10 00:48:31;;;;;;;15.45;8.98;;;;;;;;;;5052798;28;20053;-46
2022/04/10 00:53:43;;;;;;;11.30;7.43;;;;;;;;;;5053533;28;20039;-44
2022/04/10 00:56:09;;;;;;;11.02;6.43;;;;;;;;;;5053208;28;20032;-40
2022/04/10 00:58:37;;;;;;;10.45;6.38;;;;;;;;;;5053252;28;20083;-44
2022/04/10 01:01:03;;;;;;;11.60;7.30;;;;;;;;;;5053295;28;20017;-43
2022/04/10 01:03:29;;;;;;;7.35;5.40;;;;;;;;;;5053290;28;20025;-39
2022/04/10 01:05:55;;;;;;;8.35;6.07;;;;;;;;;;5053031;28;20029;-38
2022/04/10 01:08:22;;;;;;;8.18;5.28;;;;;;;;;;5053225;28;20048;-41
2022/04/10 01:10:48;;;;;;;10.05;6.07;;;;;;;;;;5056626;28;20024;-40
2022/04/10 01:13:14;;;;;;;11.10;6.93;;;;;;;;;;5057162;28;20056;-41
2022/04/10 01:15:40;;;;;;;12.13;7.72;;;;;;;;;;5056948;28;20025;-38
2022/04/10 01:18:09;;;;;;;9.02;6.13;;;;;;;;;;5056966;28;20158;-39
2022/04/10 01:20:35;;;;;;;9.70;6.45;;;;;;;;;;5056862;28;20058;-39
2022/04/10 01:23:06;;;;;;;10.13;5.72;;;;;;;;;;5057047;28;20028;-42
2022/04/10 01:25:41;;;;;;;7.65;5.43;;;;;;;;;;5056791;28;20398;-38
2022/04/10 01:28:13;;;;;;;10.88;5.72;;;;;;;;;;5056803;28;20037;-39
2022/04/10 01:30:40;;;;;;;6.53;5.00;;;;;;;;;;5056966;28;20029;-39
2022/04/10 01:33:06;;;;;;;6.95;5.13;;;;;;;;;;5056767;28;20159;-40
2022/04/10 01:35:32;;;;;;;8.63;6.03;;;;;;;;;;5056805;28;20024;-39
2022/04/10 01:38:00;;;;;;;6.03;4.57;;;;;;;;;;5056687;28;20017;-42
2022/04/10 01:40:26;;;;;;;7.65;4.75;;;;;;;;;;5056763;28;20503;-46
2022/04/10 01:42:52;;;;;;;12.20;5.75;;;;;;;;;;5056471;28;20028;-47
2022/04/10 01:45:20;;;;;;;6.95;4.90;;;;;;;;;;5056672;28;20036;-48
2022/04/10 01:47:50;;;;;;;9.98;5.25;;;;;;;;;;5056224;28;20068;-45
2022/04/10 01:50:16;;;;;;;18.13;7.68;;;;;;;;;;5056256;28;20029;-44
2022/04/10 01:52:45;;;;;;;21.83;8.13;;;;;;;;;;5056255;28;20052;-43
2022/04/10 01:55:13;;;;;;;11.98;6.95;;;;;;;;;;5056744;28;20487;-45
2022/04/10 01:57:42;;;;;;;5.97;4.75;;;;;;;;;;5056226;28;20020;-43
2022/04/10 02:00:09;;;;;;;6.88;4.40;;;;;;;;;;5056191;28;20539;-39
2022/04/10 02:02:35;;;;;;;7.68;5.32;;;;;;;;;;5056130;28;20495;-44
2022/04/10 02:05:01;;;;;;;5.85;4.03;;;;;;;;;;5054948;28;20021;-41
2022/04/10 02:07:27;;;;;;;7.88;4.18;;;;;;;;;;5056142;28;20021;-42
2022/04/10 02:09:53;;;;;;;4.88;4.13;;;;;;;;;;5055937;28;20029;-39
2022/04/10 02:12:24;;;;;;;5.05;4.13;;;;;;;;;;5056123;28;20021;-44
2022/04/10 02:14:50;;;;;;;5.93;4.65;;;;;;;;;;5056357;28;20024;-44
2022/04/10 02:17:16;;;;;;;7.53;4.68;;;;;;;;;;5056142;28;20029;-41
2022/04/10 02:19:44;;;;;;;8.55;4.50;;;;;;;;;;5054289;28;20447;-38
2022/04/10 02:22:10;;;;;;;6.60;4.90;;;;;;;;;;5055849;28;20027;-44
2022/04/10 02:24:36;;;;;;;8.43;5.53;;;;;;;;;;5055715;28;20497;-44
2022/04/10 02:27:02;;;;;;;8.65;5.20;;;;;;;;;;5055555;28;20028;-39
2022/04/10 02:29:28;;;;;;;5.30;4.15;;;;;;;;;;5055611;28;20033;-40
2022/04/10 02:31:58;;;;;;;9.15;5.03;;;;;;;;;;5055568;28;20021;-38
2022/04/10 02:34:24;;;;;;;7.55;5.28;;;;;;;;;;5055571;28;20021;-40
2022/04/10 02:36:50;;;;;;;7.40;5.28;;;;;;;;;;5054116;28;20393;-39
2022/04/10 02:39:16;;;;;;;6.22;4.40;;;;;;;;;;5055554;28;20049;-38
2022/04/10 02:41:42;;;;;;;6.03;4.65;;;;;;;;;;5055474;28;20044;-44
2022/04/10 02:44:09;;;;;;;7.45;4.68;;;;;;;;;;5055744;28;20377;-45
2022/04/10 02:46:35;;;;;;;5.60;4.43;;;;;;;;;;5055567;28;20096;-46
2022/04/10 02:49:01;;;;;;;6.10;4.38;;;;;;;;;;5055010;28;20045;-44
2022/04/10 02:51:28;;;;;;;7.35;4.28;;;;;;;;;;5055424;28;20147;-45
2022/04/10 02:53:54;;;;;;;5.25;4.15;;;;;;;;;;5055400;28;20025;-45
2022/04/10 02:56:23;;;;;;;7.47;4.72;;;;;;;;;;5053973;28;20029;-45
2022/04/10 02:58:49;;;;;;;6.47;4.57;;;;;;;;;;5055330;28;20036;-44
2022/04/10 03:01:15;;;;;;;6.53;4.78;;;;;;;;;;5055258;28;20055;-41
2022/04/10 03:03:41;;;;;;;6.78;4.75;;;;;;;;;;5055016;28;20039;-41
2022/04/10 03:06:07;;;;;;;5.50;4.38;;;;;;;;;;5054994;28;20115;-38
2022/04/10 03:08:33;;;;;;;6.63;4.63;;;;;;;;;;5054876;28;20025;-40
2022/04/10 03:10:59;;;;;;;6.85;5.00;;;;;;;;;;5054943;28;20059;-43
2022/04/10 03:13:25;;;;;;;6.78;5.25;;;;;;;;;;5054776;28;20362;-41
2022/04/10 03:15:51;;;;;;;15.45;8.30;;;;;;;;;;5053489;28;20497;-46
2022/04/10 03:18:17;;;;;;;15.20;7.88;;;;;;;;;;5054569;28;20494;-41
2022/04/10 03:20:43;;;;;;;7.72;5.57;;;;;;;;;;5054661;28;20028;-46
2022/04/10 03:23:10;;;;;;;7.63;5.72;;;;;;;;;;5054659;28;20021;-45
2022/04/10 03:25:36;;;;;;;11.23;5.50;;;;;;;;;;5054561;28;20384;-42
2022/04/10 03:28:03;;;;;;;9.85;5.85;;;;;;;;;;5054545;28;20036;-40
2022/04/10 03:30:29;;;;;;;10.57;6.18;;;;;;;;;;5054443;28;20500;-43
2022/04/10 03:32:55;;;;;;;6.90;5.40;;;;;;;;;;5053736;28;20108;-42
2022/04/10 03:35:24;;;;;;;10.43;5.78;;;;;;;;;;5054315;28;20028;-37
2022/04/10 03:37:50;;;;;;;10.27;6.05;;;;;;;;;;5054516;28;20044;-45
2022/04/10 03:40:16;;;;;;;7.70;5.25;;;;;;;;;;5053063;28;20055;-43
2022/04/10 03:42:42;;;;;;;15.05;8.80;;;;;;;;;;5054344;28;20548;-45
2022/04/10 03:45:09;;;;;;;14.00;8.50;;;;;;;;;;5054263;28;20028;-37
2022/04/10 03:47:40;;;;;;;11.73;7.50;;;;;;;;;;5054132;28;20060;-39
2022/04/10 03:50:07;;;;;;;8.65;6.32;;;;;;;;;;5054135;28;20502;-38
2022/04/10 03:52:33;;;;;;;8.05;5.97;;;;;;;;;;5054189;28;20051;-37
2022/04/10 03:54:59;;;;;;;8.63;5.32;;;;;;;;;;5054142;28;20031;-40
2022/04/10 03:57:25;;;;;;;16.25;8.30;;;;;;;;;;5053698;28;20376;-40
2022/04/10 03:59:53;;;;;;;7.85;5.63;;;;;;;;;;5053978;28;20025;-38
2022/04/10 04:02:22;;;;;;;8.05;4.82;;;;;;;;;;5053967;28;20025;-39
2022/04/10 04:04:49;;;;;;;8.57;5.70;;;;;;;;;;5053996;28;20025;-39
2022/04/10 04:07:15;;;;;;;7.65;5.03;;;;;;;;;;5053975;28;20071;-39
2022/04/10 04:09:41;;;;;;;14.80;8.40;;;;;;;;;;5053731;28;20047;-39
2022/04/10 04:12:08;;;;;;;15.68;7.70;;;;;;;;;;5053906;28;20017;-37
2022/04/10 04:14:34;;;;;;;10.57;6.40;;;;;;;;;;5053948;28;20025;-38
2022/04/10 04:17:02;;;;;;;12.70;8.02;;;;;;;;;;5052357;28;20047;-38
2022/04/10 04:19:28;;;;;;;7.80;5.43;;;;;;;;;;5053581;28;20495;-38
2022/04/10 04:21:54;;;;;;;9.00;6.30;;;;;;;;;;5053753;28;20120;-38
2022/04/10 04:24:21;;;;;;;8.65;5.88;;;;;;;;;;5053515;28;20021;-38
2022/04/10 04:26:47;;;;;;;8.25;5.80;;;;;;;;;;5053426;28;20029;-44
2022/04/10 04:29:13;;;;;;;10.95;7.53;;;;;;;;;;5053290;28;20040;-44
2022/04/10 04:31:41;;;;;;;7.97;5.50;;;;;;;;;;5053734;28;20524;-44
2022/04/10 04:34:11;;;;;;;8.57;6.32;;;;;;;;;;5053426;28;20024;-42
2022/04/10 04:36:38;;;;;;;10.13;6.93;;;;;;;;;;5053344;28;20040;-46
2022/04/10 04:39:04;;;;;;;10.05;6.35;;;;;;;;;;5053590;28;20481;-44
2022/04/10 04:41:30;;;;;;;9.07;6.35;;;;;;;;;;5053523;28;20028;-40
2022/04/10 04:43:56;;;;;;;11.07;6.50;;;;;;;;;;5053390;28;20032;-47
2022/04/10 04:46:22;;;;;;;8.18;6.05;;;;;;;;;;5053261;28;20013;-38
2022/04/10 04:48:48;;;;;;;11.40;6.60;;;;;;;;;;5052955;28;20106;-45
2022/04/10 04:51:15;;;;;;;11.90;6.80;;;;;;;;;;5053360;28;20385;-39
2022/04/10 04:53:41;;;;;;;7.63;5.20;;;;;;;;;;5053260;28;20021;-38
2022/04/10 04:56:07;;;;;;;11.70;6.85;;;;;;;;;;5053042;28;20032;-44
2022/04/10 04:58:33;;;;;;;8.75;6.38;;;;;;;;;;5053057;28;20048;-42
2022/04/10 05:01:00;;;;;;;12.80;7.90;;;;;;;;;;5053291;28;20052;-39
2022/04/10 05:03:26;;;;;;;15.88;9.07;;;;;;;;;;5053042;28;20039;-43
2022/04/10 05:05:54;;;;;;;15.80;9.93;;;;;;;;;;5053193;28;20023;-38
2022/04/10 05:08:20;;;;;;;17.10;9.77;;;;;;;;;;5053006;28;20055;-45
2022/04/10 05:10:47;;;;;;;13.60;8.85;;;;;;;;;;5053039;28;20033;-41
2022/04/10 05:13:16;;;;;;;11.88;7.88;;;;;;;;;;5053470;28;20021;-44
2022/04/10 05:15:44;;;;;;;12.98;8.30;;;;;;;;;;5053143;28;20029;-39
2022/04/10 05:18:13;;;;;;;15.38;9.15;;;;;;;;;;5052996;28;20025;-42
2022/04/10 05:20:39;;;;;;;15.43;9.60;;;;;;;;;;5052833;28;20108;-45
2022/04/10 05:23:05;;;;;;;14.82;8.88;;;;;;;;;;5053410;28;20527;-41
2022/04/10 05:25:31;;;;;;;12.75;8.13;;;;;;;;;;5053251;28;20033;-40
2022/04/10 05:27:57;;;;;;;19.48;8.98;;;;;;;;;;5052745;28;20146;-45
2022/04/10 05:30:23;;;;;;;13.25;8.18;;;;;;;;;;5052915;28;20044;-40
2022/04/10 05:32:49;;;;;;;13.25;8.30;;;;;;;;;;5053140;28;20025;-41
2022/04/10 05:35:16;;;;;;;12.52;7.57;;;;;;;;;;5051644;28;20075;-41
2022/04/10 05:37:42;;;;;;;13.85;7.53;;;;;;;;;;5052896;28;20021;-38
2022/04/10 05:40:08;;;;;;;8.32;6.15;;;;;;;;;;5052783;28;20036;-46
2022/04/10 05:42:44;;;;;;;10.30;5.60;;;;;;;;;;5052705;28;20025;-39
2022/04/10 05:45:11;;;;;;;7.10;5.18;;;;;;;;;;5052928;28;20039;-38
2022/04/10 05:47:39;;;;;;;9.93;5.65;;;;;;;;;;5052892;28;20056;-40
2022/04/10 05:50:05;;;;;;;10.10;5.53;;;;;;;;;;5052652;28;20033;-42
2022/04/10 05:52:31;;;;;;;7.72;5.38;;;;;;;;;;5052978;28;20018;-41
2022/04/10 05:54:58;;;;;;;11.55;5.50;;;;;;;;;;5053040;28;20060;-47
2022/04/10 05:57:25;;;;;;;8.43;4.90;;;;;;;;;;5056183;28;20036;-45
2022/04/10 05:59:51;;;;;;;8.20;5.05;;;;;;;;;;5056220;28;20029;-47
2022/04/10 06:02:17;;;;;;;9.20;5.40;;;;;;;;;;5056298;28;20047;-41
2022/04/10 06:04:43;;;;;;;10.35;5.72;;;;;;;;;;5056244;28;20025;-38
2022/04/10 06:07:09;;;;;;;7.55;4.82;;;;;;;;;;5056043;28;20025;-43
2022/04/10 06:09:37;;;;;;;8.25;4.40;;;;;;;;;;5055989;28;20473;-43
2022/04/10 06:12:03;;;;;;;7.05;4.57;;;;;;;;;;5056032;28;20055;-40
2022/04/10 06:14:29;;;;;;;5.72;4.45;;;;;;;;;;5055993;28;20021;-39
2022/04/10 06:16:55;;;;;;;7.38;4.38;;;;;;;;;;5055830;28;20029;-41
2022/04/10 06:19:22;;;;;;;8.27;3.97;;;;;;;;;;5054566;28;20040;-42
2022/04/10 06:21:49;;;;;;;5.82;4.32;;;;;;;;;;5055781;28;20112;-40
2022/04/10 06:24:15;;;;;;;8.00;4.68;;;;;;;;;;5055891;28;20029;-39
2022/04/10 06:26:43;;;;;;;6.95;4.25;;;;;;;;;;5055608;28;20104;-41
2022/04/10 06:29:13;;;;;;;6.50;4.10;;;;;;;;;;5055633;28;20024;-40
2022/04/10 06:31:39;;;;;;;7.22;3.95;;;;;;;;;;5055861;28;20116;-42
2022/04/10 06:34:08;;;;;;;7.90;4.10;;;;;;;;;;5055667;28;20096;-41
2022/04/10 06:36:34;;;;;;;8.73;4.30;;;;;;;;;;5055604;28;20407;-47
2022/04/10 06:39:00;;;;;;;7.15;4.28;;;;;;;;;;5055733;28;20096;-41
2022/04/10 06:41:26;;;;;;;9.02;5.93;;;;;;;;;;5055610;28;20028;-40
2022/04/10 06:43:52;;;;;;;8.68;4.75;;;;;;;;;;5055627;28;20538;-43
2022/04/10 06:46:18;;;;;;;8.32;4.70;;;;;;;;;;5055296;28;20056;-44
2022/04/10 06:48:44;;;;;;;8.32;4.78;;;;;;;;;;5055113;28;20408;-39
2022/04/10 06:51:10;;;;;;;9.63;4.97;;;;;;;;;;5055065;28;20110;-41
2022/04/10 06:53:36;;;;;;;8.90;4.80;;;;;;;;;;5055475;28;20025;-40
2022/04/10 06:56:03;;;;;;;11.10;4.93;;;;;;;;;;5055209;28;20029;-41
2022/04/10 06:58:29;;;;;;;8.90;5.85;;;;;;;;;;5055084;28;20100;-46
2022/04/10 07:00:55;;;;;;;9.00;6.63;;;;;;;;;;5055228;28;20029;-46
2022/04/10 07:03:21;;;;;;;6.30;4.75;;;;;;;;;;5055280;28;20136;-49
2022/04/10 07:05:49;;;;;;;6.38;4.28;;;;;;;;;;5053785;28;20040;-40
2022/04/10 07:08:15;;;;;;;7.85;4.47;;;;;;;;;;5055034;28;20036;-46
2022/04/10 07:10:41;;;;;;;5.13;3.47;;;;;;;;;;5054626;28;20044;-42
2022/04/10 07:13:08;;;;;;;7.25;3.85;;;;;;;;;;5054874;28;20103;-45
2022/04/10 07:15:35;;;;;;;7.43;3.85;;;;;;;;;;5054653;28;20028;-38
2022/04/10 07:18:01;;;;;;;7.05;4.40;;;;;;;;;;5054811;28;20051;-40
2022/04/10 07:20:27;;;;;;;8.15;4.70;;;;;;;;;;5054795;28;20052;-45
2022/04/10 07:25:38;;;;;;;7.32;4.60;;;;;;;;;;5054935;28;20047;-39
2022/04/10 07:28:04;;;;;;;8.25;5.57;;;;;;;;;;5054573;28;20024;-46
2022/04/10 07:30:31;;;;;;;9.40;4.93;;;;;;;;;;5054642;28;20040;-45
2022/04/10 07:32:58;;;;;;;8.25;5.28;;;;;;;;;;5054731;28;20017;-50
2022/04/10 07:35:27;;;;;;;17.40;6.82;;;;;;;;;;5054596;28;20021;-47
2022/04/10 07:37:53;;;;;;;10.40;4.88;;;;;;;;;;5054540;28;20023;-47
2022/04/10 07:40:19;;;;;;;10.20;5.55;;;;;;;;;;5054300;28;20021;-47
2022/04/10 07:42:46;;;;;;;16.30;7.93;;;;;;;;;;5054503;28;20025;-46
2022/04/10 07:47:25;;;;;;;12.40;7.13;;;;;;;;;;5054243;28;20029;-41
2022/04/10 07:47:59;;;;;;;9.70;5.65;;;;;;;;;;5054001;28;20041;-46
2022/04/10 07:50:28;;;;;;;7.75;5.50;;;;;;;;;;5054059;28;20037;-41
2022/04/10 07:52:59;;;;;;;9.57;4.47;;;;;;;;;;5054008;28;20059;-45
2022/04/10 07:55:28;;;;;;;5.90;4.38;;;;;;;;;;5054129;28;20028;-46
2022/04/10 07:57:54;;;;;;;7.40;4.45;;;;;;;;;;5053911;28;20389;-42
2022/04/10 08:00:21;;;;;;;9.25;5.32;;;;;;;;;;5054082;28;20079;-39
2022/04/10 08:02:48;;;;;;;8.55;4.38;;;;;;;;;;5053974;28;20017;-46
2022/04/10 08:05:14;;;;;;;4.85;3.78;;;;;;;;;;5054013;28;20029;-41
2022/04/10 08:07:46;;;;;;;9.88;4.90;;;;;;;;;;5053788;28;20492;-48
2022/04/10 08:10:13;;;;;;;16.92;10.63;;;;;;;;;;5053952;28;20045;-46
2022/04/10 08:12:40;;;;;;;16.30;7.45;;;;;;;;;;5053915;28;20346;-47
2022/04/10 08:15:09;;;;;;;17.38;8.73;;;;;;;;;;5053697;28;20038;-41
2022/04/10 08:17:35;;;;;;;25.55;13.07;;;;;;;;;;5052854;28;20032;-40
2022/04/10 08:20:04;;;;;;;12.75;7.60;;;;;;;;;;5052967;28;20025;-41
2022/04/10 08:22:33;;;;;;;27.63;14.77;;;;;;;;;;5053071;28;20078;-39
2022/04/10 08:25:03;;;;;;;33.22;14.77;;;;;;;;;;5053136;28;20083;-44
2022/04/10 08:27:32;;;;;;;28.02;16.00;;;;;;;;;;5052898;28;20033;-40
2022/04/10 08:29:58;;;;;;;17.65;10.68;;;;;;;;;;5052863;28;20017;-44
2022/04/10 08:32:24;;;;;;;9.27;5.95;;;;;;;;;;5053049;28;20035;-47
2022/04/10 08:34:51;;;;;;;7.68;5.38;;;;;;;;;;5052732;28;20100;-41
2022/04/10 08:37:17;;;;;;;8.27;5.30;;;;;;;;;;5052851;28;20069;-46
2022/04/10 08:39:43;;;;;;;16.83;7.38;;;;;;;;;;5052794;28;20082;-42
2022/04/10 08:42:12;;;;;;;21.25;11.30;;;;;;;;;;5052935;28;20431;-49
2022/04/10 08:44:43;;;;;;;13.07;7.30;;;;;;;;;;5052758;28;20539;-43
2022/04/10 08:47:09;;;;;;;20.45;8.77;;;;;;;;;;5043555;28;20079;-45
2022/04/10 08:49:35;;;;;;;35.72;17.13;;;;;;;;;;5049132;28;20021;-49
2022/04/10 08:52:01;;;;;;;23.65;11.73;;;;;;;;;;5052694;28;20465;-44
2022/04/10 08:54:28;;;;;;;8.63;5.65;;;;;;;;;;5052751;28;20024;-54
2022/04/10 08:56:55;;;;;;;10.52;5.63;;;;;;;;;;5052809;28;20025;-40
2022/04/10 08:59:21;;;;;;;13.27;5.75;;;;;;;;;;5052490;28;20100;-46
2022/04/10 09:01:54;;;;;;;23.73;12.63;;;;;;;;;;5052525;28;20017;-54
2022/04/10 09:04:21;;;;;;;16.85;9.50;;;;;;;;;;5052479;28;20496;-50
2022/04/10 09:07:02;;;;;;;13.15;8.45;;;;;;;;;;5052509;28;20021;-50
2022/04/10 09:09:29;;;;;;;34.22;20.02;;;;;;;;;;5049766;28;20025;-51
2022/04/10 09:11:55;;;;;;;20.73;14.10;;;;;;;;;;5052586;28;20025;-46
2022/04/10 09:14:25;;;;;;;12.05;8.00;;;;;;;;;;5052748;28;20464;-42
2022/04/10 09:17:10;;;;;;;12.13;6.80;;;;;;;;;;5053373;28;20103;-45
2022/04/10 09:19:37;;;;;;;11.32;5.85;;;;;;;;;;5052903;28;20560;-43
2022/04/10 09:22:22;;;;;;;7.40;4.75;;;;;;;;;;5051085;28;20036;-45
2022/04/10 09:25:07;;;;;;;9.93;6.13;;;;;;;;;;5052072;28;20029;-41
2022/04/10 09:27:34;;;;;;;6.47;4.85;;;;;;;;;;5050333;28;20044;-51
2022/04/10 09:30:01;;;;;;;5.15;3.70;;;;;;;;;;5051594;28;20115;-44
2022/04/10 09:32:40;;;;;;;6.20;4.38;;;;;;;;;;5056414;28;20105;-42
2022/04/10 09:35:07;;;;;;;10.27;4.88;;;;;;;;;;5056179;28;20087;-46
2022/04/10 09:37:41;;;;;;;14.25;7.57;;;;;;;;;;5056001;28;20032;-43
2022/04/10 09:40:24;;;;;;;9.40;4.75;;;;;;;;;;5055036;28;20041;-41
2022/04/10 09:43:04;;;;;;;5.97;4.55;;;;;;;;;;5056172;28;20084;-40
2022/04/10 09:45:40;;;;;;;32.03;6.07;;;;;;;;;;5056096;28;20083;-40
2022/04/10 09:48:29;;;;;;;13.90;4.63;;;;;;;;;;5056137;28;20049;-39
2022/04/10 09:50:59;;;;;;;10.48;5.10;;;;;;;;;;5054001;28;20037;-46
2022/04/10 09:53:26;;;;;;;10.40;4.25;;;;;;;;;;5056067;28;20025;-41
2022/04/10 09:56:00;;;;;;;7.55;3.50;;;;;;;;;;5056106;28;20389;-40
2022/04/10 09:58:26;;;;;;;7.70;4.10;;;;;;;;;;5055831;28;20397;-43
2022/04/10 10:00:56;;;;;;;6.57;4.47;;;;;;;;;;5055804;28;20021;-41
2022/04/10 10:03:23;;;;;;;9.63;4.55;;;;;;;;;;5055771;28;20017;-44
2022/04/10 10:05:53;;;;;;;8.93;4.05;;;;;;;;;;5055544;28;20033;-44
2022/04/10 10:08:20;;;;;;;6.60;3.90;;;;;;;;;;5053611;28;20027;-50
2022/04/10 10:10:49;;;;;;;5.72;3.50;;;;;;;;;;5055667;28;20473;-44
2022/04/10 10:13:17;;;;;;;17.67;4.35;;;;;;;;;;5052888;28;20021;-39
2022/04/10 10:15:45;;;;;;;15.40;3.80;;;;;;;;;;5055361;28;20035;-42
2022/04/10 10:18:12;;;;;;;5.38;3.22;;;;;;;;;;5055922;28;20037;-50
2022/04/10 10:20:40;;;;;;;7.20;3.00;;;;;;;;;;5055965;28;20032;-41
2022/04/10 10:23:12;;;;;;;5.00;2.70;;;;;;;;;;5055801;28;20021;-43
2022/04/10 10:25:42;;;;;;;9.63;5.03;;;;;;;;;;5055786;28;20389;-42
2022/04/10 10:28:27;;;;;;;16.63;7.47;;;;;;;;;;5055617;28;20493;-47
2022/04/10 10:31:12;;;;;;;23.95;12.07;;;;;;;;;;5055542;28;20124;-39
2022/04/10 10:33:38;;;;;;;10.15;5.60;;;;;;;;;;5041848;28;20486;-46
2022/04/10 10:36:07;;;;;;;22.10;5.40;;;;;;;;;;5024079;28;20193;-49
2022/04/10 10:38:34;;;;;;;7.85;3.78;;;;;;;;;;5022953;28;20091;-43
2022/04/10 10:41:12;;;;;;;7.05;4.10;;;;;;;;;;5022396;28;20430;-47
2022/04/10 10:43:38;;;;;;;9.88;3.45;;;;;;;;;;5022820;28;20071;-45
2022/04/10 10:46:20;;;;;;;7.35;3.70;;;;;;;;;;5022640;28;20502;-47
2022/04/10 10:48:46;;;;;;;10.30;4.18;;;;;;;;;;5023560;28;20057;-43
2022/04/10 10:51:12;;;;;;;8.20;3.58;;;;;;;;;;5023615;28;20037;-44
2022/04/10 10:53:43;;;;;;;6.68;3.80;;;;;;;;;;5023213;28;20025;-49
2022/04/10 10:56:18;;;;;;;7.55;4.28;;;;;;;;;;5033401;28;20842;-46
2022/04/10 10:58:44;;;;;;;6.68;3.40;;;;;;;;;;5023884;28;20376;-45
2022/04/10 11:01:23;;;;;;;7.68;3.70;;;;;;;;;;5022536;28;20145;-47
2022/04/10 11:04:02;;;;;;;11.25;4.50;;;;;;;;;;5022610;28;20030;-44
2022/04/10 11:06:33;;;;;;;7.22;3.92;;;;;;;;;;5022323;28;20027;-41
2022/04/10 11:09:18;;;;;;;7.47;3.45;;;;;;;;;;5022220;28;20037;-42
2022/04/10 11:11:44;;;;;;;4.07;3.35;;;;;;;;;;5024706;28;20355;-44
2022/04/10 11:14:28;;;;;;;6.60;3.40;;;;;;;;;;5022180;28;20035;-38
2022/04/10 11:16:54;;;;;;;5.97;3.55;;;;;;;;;;5021983;28;20076;-50
2022/04/10 11:19:23;;;;;;;6.00;3.45;;;;;;;;;;5021968;28;20615;-45
2022/04/10 11:21:49;;;;;;;5.57;3.30;;;;;;;;;;5022128;28;20044;-51
2022/04/10 11:24:24;;;;;;;6.45;3.65;;;;;;;;;;5023449;28;20158;-52
2022/04/10 11:26:51;;;;;;;8.63;3.80;;;;;;;;;;5022075;28;20065;-52
2022/04/10 11:29:20;;;;;;;5.97;4.10;;;;;;;;;;5021982;28;20473;-40
2022/04/10 11:31:51;;;;;;;4.57;3.17;;;;;;;;;;5022830;28;20489;-51
2022/04/10 11:34:21;;;;;;;4.10;3.45;;;;;;;;;;5021979;28;20503;-44
2022/04/10 11:36:52;;;;;;;6.43;4.07;;;;;;;;;;5021710;28;20587;-39
2022/04/10 11:39:22;;;;;;;6.63;3.60;;;;;;;;;;5022747;28;20640;-41
2022/04/10 11:41:50;;;;;;;4.35;3.63;;;;;;;;;;5021891;28;20025;-41
2022/04/10 11:44:18;;;;;;;7.38;3.50;;;;;;;;;;5021708;28;20022;-44
2022/04/10 11:46:49;;;;;;;6.25;3.88;;;;;;;;;;5021566;28;20033;-46
2022/04/10 11:49:18;;;;;;;5.68;3.65;;;;;;;;;;5021326;28;20060;-47
2022/04/10 11:51:54;;;;;;;4.07;3.10;;;;;;;;;;5021713;28;20402;-41
2022/04/10 11:54:27;;;;;;;4.30;3.00;;;;;;;;;;5021903;28;20070;-40
2022/04/10 11:56:54;;;;;;;6.13;2.88;;;;;;;;;;5021917;28;20112;-45
2022/04/10 11:59:20;;;;;;;6.18;3.20;;;;;;;;;;5021612;28;20021;-42
2022/04/10 12:01:48;;;;;;;5.60;2.78;;;;;;;;;;5021428;28;20021;-49
2022/04/10 12:04:16;;;;;;;5.28;3.63;;;;;;;;;;5021695;28;20021;-44
2022/04/10 12:06:42;;;;;;;7.28;3.95;;;;;;;;;;5021442;28;20532;-42
2022/04/10 12:09:08;;;;;;;8.43;3.70;;;;;;;;;;5021428;28;20048;-44
2022/04/10 12:11:38;;;;;;;5.10;3.47;;;;;;;;;;5021006;28;20726;-41
2022/04/10 12:14:15;;;;;;;4.70;3.45;;;;;;;;;;5022163;28;20032;-42
2022/04/10 12:16:43;;;;;;;5.88;3.38;;;;;;;;;;5021215;28;20051;-44
2022/04/10 12:19:09;;;;;;;5.28;3.40;;;;;;;;;;5022762;28;20147;-47
2022/04/10 12:21:35;;;;;;;7.60;3.40;;;;;;;;;;5020808;28;20025;-46
2022/04/10 12:24:05;;;;;;;4.97;2.88;;;;;;;;;;5020856;28;20462;-44
2022/04/10 12:26:34;;;;;;;4.85;2.72;;;;;;;;;;5021440;28;20045;-46
2022/04/10 12:29:01;;;;;;;8.77;4.82;;;;;;;;;;5020711;28;20028;-42
2022/04/10 12:31:28;;;;;;;5.03;3.75;;;;;;;;;;5020968;28;20537;-47
2022/04/10 12:33:55;;;;;;;8.23;4.22;;;;;;;;;;5020749;28;20025;-48
2022/04/10 12:36:23;;;;;;;5.85;3.78;;;;;;;;;;5020776;28;20029;-49
2022/04/10 12:38:53;;;;;;;6.22;3.78;;;;;;;;;;5020605;28;20033;-52
2022/04/10 12:41:26;;;;;;;8.02;3.88;;;;;;;;;;5021021;28;20464;-45
2022/04/10 12:44:18;;;;;;;5.60;3.30;;;;;;;;;;5020819;28;20075;-47
2022/04/10 12:46:44;;;;;;;4.80;3.70;;;;;;;;;;5018727;28;20044;-47
2022/04/10 12:49:14;;;;;;;5.57;3.88;;;;;;;;;;5020413;28;20076;-46
2022/04/10 12:52:05;;;;;;;4.88;3.50;;;;;;;;;;5021300;28;20033;-46
2022/04/10 12:54:45;;;;;;;3.63;2.67;;;;;;;;;;5021506;28;20076;-39
2022/04/10 12:57:12;;;;;;;4.40;2.17;;;;;;;;;;5020598;28;20497;-47
2022/04/10 12:59:46;;;;;;;3.67;2.38;;;;;;;;;;5020464;28;20025;-41
2022/04/10 13:02:28;;;;;;;4.95;2.47;;;;;;;;;;5020782;28;20108;-47
2022/04/10 13:04:58;;;;;;;5.88;3.03;;;;;;;;;;5022794;28;20056;-42
2022/04/10 13:07:25;;;;;;;4.88;3.50;;;;;;;;;;5024602;28;20036;-36
2022/04/10 13:10:06;;;;;;;10.38;5.50;;;;;;;;;;5025618;28;20030;-45
2022/04/10 13:12:32;;;;;;;;;;;;;;;;;;5025873;28;20029;-42
2022/04/10 13:14:58;;;;;;;24.50;13.27;;;;;;;;;;5035021;28;20185;-38
2022/04/10 13:17:34;;;;;;;42.20;25.67;;;;;;;;;;5024695;28;20033;-42
2022/04/10 13:20:10;;;;;;;23.02;14.07;;;;;;;;;;5025024;28;20064;-46
2022/04/10 13:22:39;;;;;;;23.33;13.23;;;;;;;;;;5026493;28;20134;-39
2022/04/10 13:25:06;;;;;;;20.38;12.45;;;;;;;;;;5025171;28;20134;-45
2022/04/10 13:27:32;;;;;;;11.98;5.70;;;;;;;;;;5024865;28;20036;-39
2022/04/10 13:29:58;;;;;;;7.38;4.22;;;;;;;;;;5024840;28;20118;-38
2022/04/10 13:32:27;;;;;;;9.18;3.83;;;;;;;;;;5025246;28;20051;-42
2022/04/10 13:34:53;;;;;;;8.07;4.40;;;;;;;;;;5026070;28;20040;-39
2022/04/10 13:37:20;;;;;;;54.60;31.52;;;;;;;;;;5024587;28;20032;-48
2022/04/10 13:39:46;;;;;;;23.05;10.55;;;;;;;;;;5024382;28;20100;-45
2022/04/10 13:42:17;;;;;;;22.05;9.18;;;;;;;;;;5024598;28;20125;-38
2022/04/10 13:44:43;;;;;;;20.75;10.40;;;;;;;;;;5024656;28;20025;-42
2022/04/10 13:47:09;;;;;;;18.95;9.38;;;;;;;;;;5025401;28;20342;-46
2022/04/10 13:49:35;;;;;;;11.75;7.05;;;;;;;;;;5024773;28;20029;-41
2022/04/10 13:52:01;;;;;;;10.85;4.47;;;;;;;;;;5024204;28;20136;-48
2022/04/10 13:54:28;;;;;;;28.45;15.20;;;;;;;;;;5024481;28;20021;-51
2022/04/10 13:56:54;;;;;;;19.00;9.10;;;;;;;;;;5023987;28;20754;-50
2022/04/10 13:59:20;;;;;;;38.17;19.70;;;;;;;;;;5024161;28;20040;-42
2022/04/10 14:01:46;;;;;;;12.70;7.47;;;;;;;;;;5024086;28;20100;-47
2022/04/10 14:04:12;;;;;;;16.73;6.70;;;;;;;;;;5024168;28;20029;-42
2022/04/10 14:06:38;;;;;;;10.55;6.28;;;;;;;;;;5023820;28;20102;-50
2022/04/10 14:09:04;;;;;;;10.15;4.95;;;;;;;;;;5025361;28;20025;-37
2022/04/10 14:11:34;;;;;;;7.47;4.10;;;;;;;;;;5025717;28;20060;-39
2022/04/10 14:14:00;;;;;;;12.38;5.68;;;;;;;;;;5024224;28;20600;-43
2022/04/10 14:16:29;;;;;;;9.05;4.65;;;;;;;;;;5024323;28;20036;-39
2022/04/10 14:18:56;;;;;;;12.90;6.32;;;;;;;;;;5023567;28;20033;-38
2022/04/10 14:21:22;;;;;;;27.83;14.07;;;;;;;;;;5024396;28;20027;-45
2022/04/10 14:23:48;;;;;;;8.88;5.75;;;;;;;;;;5023788;28;20040;-45
2022/04/10 14:26:14;;;;;;;15.60;7.97;;;;;;;;;;5023651;28;20112;-49
2022/04/10 14:28:44;;;;;;;16.88;9.07;;;;;;;;;;5023938;28;20103;-40
2022/04/10 14:31:10;;;;;;;21.75;10.60;;;;;;;;;;5023549;28;20083;-49
2022/04/10 14:33:36;;;;;;;23.90;7.88;;;;;;;;;;5023878;28;20021;-48
2022/04/10 14:36:03;;;;;;;13.15;6.55;;;;;;;;;;5023681;28;20086;-56
2022/04/10 14:38:29;;;;;;;14.45;7.07;;;;;;;;;;5023746;28;20442;-52
2022/04/10 14:40:58;;;;;;;14.30;6.85;;;;;;;;;;5024948;28;20024;-40
2022/04/10 14:43:24;;;;;;;15.88;6.28;;;;;;;;;;5025605;28;20736;-44
2022/04/10 14:45:50;;;;;;;13.38;5.18;;;;;;;;;;5023284;28;20033;-42
2022/04/10 14:48:17;;;;;;;7.35;4.82;;;;;;;;;;5023128;28;20041;-46